Hlavní strana
METAR-TAF:

METAR-TAF

Letiště :

Bolzano, Itálie

zeměpisná šířka: 46-28N, zeměpisná délka: 011-20E, výška: 262 m

Aktuální stav počasí

Zpráva byla vytvořena před 12 minutami, v 10:50 UTC
vítr z různých směrů 2 kt
Teplota 28°C
Vlhkost vzduchu 51%
Tlak 1018 hPa
Viditelnost 10 km a více
Skoro jasno ve výšce 10000 ft

METAR: LIPB 201050Z VRB02KT 9999 FEW100 28/17 Q1018

Čas: 13:02 (11:02 UTC)

Předpověď počasí

Zpráva byla vytvořena před 6 hodinami a 2 minutami, v 05:00 UTC
Předpověď platná od 20 v 06 UTC do 21 v 06 UTC
vítr z různých směrů 5 kt
Viditelnost 10 km a více
Polojasno ve výšce 5000 ft
Dočasný
od 20 v 14 UTC do 20 v 18 UTC
bouřka, déšť

TAF: LIPB 200500Z 2006/2106 VRB05KT 9999 SCT050 TEMPO 2014/2018 TSRA

Stav a předpovědi počasí z více než 4 000 letišť (zprávy METAR a TAF).

Červené a žluté tečky na mapě představují dostupné meteorologické stanice.

Když kurzor umístíte na tečku, zobrazí se název stanice.

Pak kliknutím zobrazíte stav a předpověď počasí.

Chcete-li změnit mapu, kliknutím na zelené tlačítko se znaménkem +mapu přiblížíte, kliknutím na zelené tlačítko se znaménkem – mapu oddálíte a kliknutím na zelené šipky přejdete na sousední mapy.


METAR-TAF: